createdAt,value
2022-09-03T00:00:06.117Z,73.54
2022-09-03T00:02:23.260Z,73.85
2022-09-03T00:04:36.769Z,73.61
2022-09-03T00:06:46.536Z,73.47
2022-09-03T00:09:08.487Z,73.60
2022-09-03T00:11:19.652Z,73.47
2022-09-03T00:13:39.270Z,73.50
2022-09-03T00:15:41.226Z,73.34
2022-09-03T00:17:54.055Z,73.00
2022-09-03T00:19:58.406Z,73.11
2022-09-03T00:22:03.746Z,73.00
2022-09-03T00:24:14.007Z,72.64
2022-09-03T00:26:23.170Z,73.09
2022-09-03T00:28:29.972Z,72.72
2022-09-03T00:30:33.801Z,72.61
2022-09-03T00:32:52.881Z,73.04
2022-09-03T00:34:59.368Z,73.29
2022-09-03T00:37:01.224Z,75.81
2022-09-03T00:39:03.210Z,77.77
2022-09-03T00:41:07.233Z,78.81
2022-09-03T00:43:14.982Z,78.94
2022-09-03T00:45:31.468Z,79.26
2022-09-03T00:47:51.753Z,79.30
2022-09-03T00:50:03.185Z,78.76
2022-09-03T00:52:19.037Z,77.81
2022-09-03T00:54:40.515Z,77.23
2022-09-03T00:57:25.802Z,76.25
2022-09-03T00:59:32.283Z,75.53
2022-09-03T01:01:41.455Z,75.67
2022-09-03T01:04:09.565Z,74.84
2022-09-03T01:06:20.333Z,74.68
2022-09-03T01:08:35.960Z,74.38
2022-09-03T01:10:57.362Z,74.12
2022-09-03T01:13:14.105Z,74.31
2022-09-03T01:15:30.313Z,74.46
2022-09-03T01:17:54.916Z,74.36
2022-09-03T01:20:09.891Z,74.59
2022-09-03T01:22:29.348Z,74.34
2022-09-03T01:24:53.294Z,74.43
2022-09-03T01:26:54.884Z,74.08
2022-09-03T01:29:12.547Z,74.27
2022-09-03T01:31:52.010Z,74.55
2022-09-03T01:34:23.605Z,74.73
2022-09-03T01:37:03.032Z,74.74
2022-09-03T01:39:24.008Z,74.53
2022-09-03T01:42:07.067Z,74.57
2022-09-03T01:44:16.914Z,74.57
2022-09-03T01:46:40.797Z,74.53
2022-09-03T01:48:49.584Z,74.51
2022-09-03T01:51:00.324Z,74.34
2022-09-03T01:53:11.121Z,74.64
2022-09-03T01:55:29.310Z,74.49
2022-09-03T01:57:56.281Z,74.27
2022-09-03T02:00:08.700Z,74.41
2022-09-03T02:02:12.821Z,74.32
2022-09-03T02:04:20.660Z,74.22
2022-09-03T02:06:22.454Z,74.28
2022-09-03T02:08:24.566Z,74.12
2022-09-03T02:10:33.362Z,74.22
2022-09-03T02:12:38.512Z,73.96
2022-09-03T02:14:40.585Z,73.98
2022-09-03T02:16:44.486Z,73.70
2022-09-03T02:18:48.748Z,73.91
2022-09-03T02:20:53.234Z,73.96
2022-09-03T02:22:56.620Z,73.90
2022-09-03T02:24:58.521Z,73.56
2022-09-03T02:27:00.178Z,73.88
2022-09-03T02:29:02.500Z,73.91
2022-09-03T02:31:04.993Z,73.67
2022-09-03T02:33:06.972Z,73.22
2022-09-03T02:35:09.274Z,73.39
2022-09-03T02:37:18.609Z,73.28
2022-09-03T02:39:20.342Z,73.47
2022-09-03T02:41:22.890Z,73.23
2022-09-03T02:43:38.838Z,73.47
2022-09-03T02:45:48.811Z,73.82
2022-09-03T02:47:52.995Z,73.60
2022-09-03T02:49:54.897Z,73.58
2022-09-03T02:52:02.218Z,73.46
2022-09-03T02:54:04.316Z,73.46
2022-09-03T02:56:06.703Z,74.06
2022-09-03T02:58:08.964Z,74.28
2022-09-03T03:00:11.014Z,74.10
2022-09-03T03:02:13.935Z,73.99
2022-09-03T03:04:15.667Z,73.98
2022-09-03T03:06:21.066Z,73.68
2022-09-03T03:08:25.239Z,73.18
2022-09-03T03:10:27.047Z,73.92
2022-09-03T03:12:31.451Z,75.28
2022-09-03T03:14:33.187Z,76.45
2022-09-03T03:16:35.165Z,78.40
2022-09-03T03:18:36.980Z,79.50
2022-09-03T03:20:39.099Z,80.26
2022-09-03T03:22:40.745Z,80.49
2022-09-03T03:24:42.421Z,80.40
2022-09-03T03:26:44.146Z,80.33
2022-09-03T03:28:48.893Z,80.46
2022-09-03T03:30:51.169Z,80.67
2022-09-03T03:32:56.367Z,80.70
2022-09-03T03:34:58.132Z,80.43
2022-09-03T03:37:00.237Z,80.73
2022-09-03T03:39:02.356Z,79.96
2022-09-03T03:41:08.296Z,80.41
2022-09-03T03:43:10.022Z,80.33
2022-09-03T03:45:11.646Z,79.79
2022-09-03T03:47:13.403Z,79.49
2022-09-03T03:49:15.094Z,79.40
2022-09-03T03:51:16.855Z,78.85
2022-09-03T03:53:18.956Z,79.04
2022-09-03T03:55:20.581Z,79.42
2022-09-03T03:57:23.054Z,79.14
2022-09-03T03:59:24.835Z,79.19
2022-09-03T04:01:27.615Z,78.63
2022-09-03T04:03:29.426Z,78.49
2022-09-03T04:05:33.635Z,77.98
2022-09-03T04:07:35.554Z,77.51
2022-09-03T04:09:37.897Z,77.51
2022-09-03T04:11:39.569Z,77.12
2022-09-03T04:13:42.785Z,76.21
2022-09-03T04:15:45.064Z,75.89
2022-09-03T04:17:46.738Z,75.65
2022-09-03T04:19:48.835Z,75.37
2022-09-03T04:21:50.501Z,74.84
2022-09-03T04:23:52.933Z,74.55
2022-09-03T04:25:54.809Z,74.83
2022-09-03T04:27:56.529Z,74.85
2022-09-03T04:29:58.302Z,74.87
2022-09-03T04:32:18.524Z,74.83
2022-09-03T04:34:20.163Z,74.79
2022-09-03T04:36:24.029Z,75.08
2022-09-03T04:38:25.732Z,74.96
2022-09-03T04:40:27.451Z,74.91
2022-09-03T04:42:29.065Z,74.47
2022-09-03T04:44:30.694Z,74.30
2022-09-03T04:46:35.082Z,74.22
2022-09-03T04:48:37.846Z,74.45
2022-09-03T04:50:40.169Z,74.34
2022-09-03T04:52:41.831Z,74.44
2022-09-03T04:54:43.485Z,75.18
2022-09-03T04:56:45.110Z,74.22
2022-09-03T04:58:51.111Z,74.93
2022-09-03T05:00:53.263Z,74.83
2022-09-03T05:02:54.980Z,74.45
2022-09-03T05:04:56.705Z,74.79
2022-09-03T05:06:58.356Z,74.84
2022-09-03T05:09:00.735Z,74.76
2022-09-03T05:11:04.297Z,75.21
2022-09-03T05:13:06.140Z,75.05
2022-09-03T05:15:08.525Z,75.12
2022-09-03T05:17:10.162Z,74.89
2022-09-03T05:19:12.644Z,74.35
2022-09-03T05:21:16.639Z,74.28
2022-09-03T05:23:19.871Z,74.35
2022-09-03T05:25:21.914Z,73.97
2022-09-03T05:27:24.196Z,74.53
2022-09-03T05:29:26.101Z,74.49
2022-09-03T05:31:30.281Z,74.73
2022-09-03T05:33:36.495Z,74.34
2022-09-03T05:35:38.789Z,74.25
2022-09-03T05:37:40.455Z,73.94
2022-09-03T05:39:42.233Z,74.25
2022-09-03T05:41:43.965Z,75.11
2022-09-03T05:43:45.597Z,75.04
2022-09-03T05:45:47.532Z,76.08
2022-09-03T05:47:49.268Z,76.00
2022-09-03T05:49:51.189Z,75.58
2022-09-03T05:51:52.935Z,75.28
2022-09-03T05:53:55.650Z,74.55
2022-09-03T05:55:58.897Z,73.75
2022-09-03T05:58:00.692Z,73.64
2022-09-03T06:00:02.604Z,73.66
2022-09-03T06:02:05.531Z,73.37
2022-09-03T06:04:09.851Z,72.84
2022-09-03T06:06:13.781Z,72.15
2022-09-03T06:08:15.447Z,72.36
2022-09-03T06:10:17.259Z,71.77
2022-09-03T06:12:18.887Z,71.56
2022-09-03T06:14:20.867Z,71.76
2022-09-03T06:16:30.838Z,71.72
2022-09-03T06:18:33.992Z,73.24
2022-09-03T06:20:37.290Z,73.83
2022-09-03T06:22:39.206Z,73.73
2022-09-03T06:24:40.954Z,72.75
2022-09-03T06:26:43.389Z,72.68
2022-09-03T06:28:45.691Z,72.65
2022-09-03T06:30:48.111Z,71.77
2022-09-03T06:32:50.673Z,72.05
2022-09-03T06:34:52.342Z,72.35
2022-09-03T06:36:54.784Z,72.31
2022-09-03T06:38:57.351Z,71.27
2022-09-03T06:41:04.250Z,73.00
2022-09-03T06:43:05.902Z,72.96
2022-09-03T06:45:12.117Z,73.17
2022-09-03T06:47:14.080Z,72.55
2022-09-03T06:49:15.863Z,73.39
2022-09-03T06:51:26.111Z,74.10
2022-09-03T06:53:31.967Z,73.05
2022-09-03T06:55:33.858Z,72.27
2022-09-03T06:57:35.475Z,73.17
2022-09-03T06:59:37.137Z,72.76
2022-09-03T07:01:43.510Z,72.08
2022-09-03T07:03:48.448Z,71.46
2022-09-03T07:05:50.049Z,71.88
2022-09-03T07:07:51.624Z,72.21
2022-09-03T07:09:53.272Z,71.71
2022-09-03T07:11:55.443Z,71.41
2022-09-03T07:13:58.248Z,71.92
2022-09-03T07:16:05.190Z,71.18
2022-09-03T07:18:07.510Z,69.95
2022-09-03T07:20:09.421Z,69.72
2022-09-03T07:22:11.681Z,69.36
2022-09-03T07:24:13.397Z,68.43
2022-09-03T07:26:17.664Z,67.40
2022-09-03T07:28:19.379Z,66.80
2022-09-03T07:30:21.175Z,66.50
2022-09-03T07:32:22.844Z,67.98
2022-09-03T07:34:26.791Z,68.09
2022-09-03T07:36:30.496Z,67.48
2022-09-03T07:38:37.498Z,67.31
2022-09-03T07:40:42.162Z,67.17
2022-09-03T07:42:43.908Z,66.33
2022-09-03T07:44:45.582Z,66.66
2022-09-03T07:46:48.245Z,66.43
2022-09-03T07:48:52.138Z,66.42
2022-09-03T07:50:59.971Z,66.12
2022-09-03T07:53:01.700Z,65.88
2022-09-03T07:55:04.995Z,65.89
2022-09-03T07:57:07.222Z,65.77
2022-09-03T07:59:09.515Z,64.70
2022-09-03T08:01:16.390Z,63.91
2022-09-03T08:03:19.083Z,63.62
2022-09-03T08:05:21.404Z,63.68
2022-09-03T08:07:23.189Z,63.70
2022-09-03T08:09:25.339Z,63.47
2022-09-03T08:11:28.477Z,63.41
2022-09-03T08:13:30.341Z,64.73
2022-09-03T08:15:33.054Z,65.89
2022-09-03T08:17:34.696Z,66.95
2022-09-03T08:19:38.349Z,65.80
2022-09-03T08:21:43.446Z,65.18
2022-09-03T08:23:47.734Z,64.26
2022-09-03T08:25:49.379Z,63.56
2022-09-03T08:27:51.473Z,63.50
2022-09-03T08:29:53.221Z,64.01
2022-09-03T08:31:56.131Z,63.53
2022-09-03T08:33:59.400Z,63.30
2022-09-03T08:36:01.039Z,62.20
2022-09-03T08:38:06.029Z,61.41
2022-09-03T08:40:12.275Z,61.84
2022-09-03T08:42:50.314Z,63.61
2022-09-03T08:44:58.271Z,64.16
2022-09-03T08:47:09.862Z,64.39
2022-09-03T08:49:15.385Z,64.80
2022-09-03T08:51:29.963Z,65.07
2022-09-03T08:53:46.940Z,64.62
2022-09-03T08:55:56.060Z,64.96
2022-09-03T08:58:07.226Z,65.95
2022-09-03T09:00:09.379Z,66.44
2022-09-03T09:02:28.206Z,65.35
2022-09-03T09:05:00.429Z,64.60
2022-09-03T09:07:14.199Z,64.38
2022-09-03T09:10:01.035Z,64.19
2022-09-03T09:12:46.846Z,65.00
2022-09-03T09:15:09.189Z,64.58
2022-09-03T09:17:28.230Z,64.07
2022-09-03T09:19:38.830Z,63.82
2022-09-03T09:21:46.275Z,63.39
2022-09-03T09:23:49.504Z,63.92
2022-09-03T09:25:51.850Z,64.51
2022-09-03T09:28:30.686Z,64.76
2022-09-03T09:30:32.902Z,64.51
2022-09-03T09:32:38.554Z,64.04
2022-09-03T09:34:41.368Z,63.85
2022-09-03T09:36:47.955Z,64.54
2022-09-03T09:38:49.657Z,63.23
2022-09-03T09:40:51.330Z,63.16
2022-09-03T09:43:04.103Z,62.95
2022-09-03T09:45:11.281Z,63.21
2022-09-03T09:47:39.838Z,64.04
2022-09-03T09:49:55.106Z,64.17
2022-09-03T09:52:12.170Z,63.97
2022-09-03T09:54:20.322Z,64.07
2022-09-03T09:56:26.192Z,63.55
2022-09-03T09:58:30.821Z,62.60
2022-09-03T10:00:35.219Z,61.98
2022-09-03T10:02:38.262Z,60.82
2022-09-03T10:04:40.532Z,61.13
2022-09-03T10:06:59.206Z,60.19
2022-09-03T10:09:11.384Z,59.77
2022-09-03T10:11:14.372Z,59.57
2022-09-03T10:13:19.508Z,60.00
2022-09-03T10:15:33.809Z,61.21
2022-09-03T10:17:56.641Z,60.77
2022-09-03T10:20:23.989Z,61.57
2022-09-03T10:22:26.475Z,61.17
2022-09-03T10:24:59.480Z,60.84
2022-09-03T10:27:01.890Z,59.66
2022-09-03T10:29:08.762Z,58.39
2022-09-03T10:31:36.770Z,57.13
2022-09-03T10:33:49.572Z,58.08
2022-09-03T10:36:04.874Z,59.42
2022-09-03T10:38:30.132Z,59.63
2022-09-03T10:40:41.647Z,59.23
2022-09-03T10:43:33.927Z,58.31
2022-09-03T10:45:41.670Z,57.73
2022-09-03T10:48:01.416Z,57.21
2022-09-03T10:50:27.304Z,58.15
2022-09-03T10:52:49.596Z,58.28
2022-09-03T10:55:15.234Z,58.50
2022-09-03T10:57:23.175Z,58.23
2022-09-03T10:59:28.965Z,57.79
2022-09-03T11:01:40.411Z,57.69
2022-09-03T11:03:52.410Z,58.56
2022-09-03T11:06:00.596Z,59.55
2022-09-03T11:08:23.659Z,59.39
2022-09-03T11:10:30.965Z,58.97
2022-09-03T11:12:37.149Z,59.07
2022-09-03T11:14:44.875Z,58.77
2022-09-03T11:16:55.213Z,59.18
2022-09-03T11:19:05.582Z,58.77
2022-09-03T11:21:12.401Z,57.69
2022-09-03T11:23:14.953Z,56.49
2022-09-03T11:25:20.081Z,55.99
2022-09-03T11:27:53.315Z,56.92
2022-09-03T11:30:09.712Z,57.25
2022-09-03T11:32:20.964Z,56.48
2022-09-03T11:34:23.591Z,57.00
2022-09-03T11:36:36.725Z,56.52
2022-09-03T11:38:39.687Z,55.17
2022-09-03T11:41:14.596Z,54.34
2022-09-03T11:43:25.235Z,54.61
2022-09-03T11:45:27.043Z,55.36
2022-09-03T11:47:40.262Z,55.49
2022-09-03T11:49:50.886Z,56.20
2022-09-03T11:52:03.737Z,56.05
2022-09-03T11:54:12.742Z,56.14
2022-09-03T11:56:19.401Z,56.07
2022-09-03T11:58:29.779Z,56.92
2022-09-03T12:00:31.636Z,56.30
2022-09-03T12:02:36.314Z,56.17
2022-09-03T12:04:53.523Z,54.88
2022-09-03T12:07:09.615Z,53.63
2022-09-03T12:09:26.974Z,55.24
2022-09-03T12:11:37.396Z,54.31
2022-09-03T12:13:45.036Z,53.77
2022-09-03T12:15:56.043Z,53.22
2022-09-03T12:18:20.399Z,53.02
2022-09-03T12:20:28.696Z,51.74
2022-09-03T12:22:31.432Z,51.34
2022-09-03T12:24:37.742Z,52.35
2022-09-03T12:26:42.142Z,52.81
2022-09-03T12:28:49.645Z,53.08
2022-09-03T12:30:54.064Z,53.61
2022-09-03T12:33:11.083Z,54.58
2022-09-03T12:40:07.330Z,53.61
2022-09-03T12:42:14.457Z,53.33
2022-09-03T12:44:39.478Z,53.22
2022-09-03T12:46:42.035Z,52.28
2022-09-03T12:53:41.009Z,50.86
2022-09-03T12:55:53.966Z,51.87
2022-09-03T12:58:26.645Z,53.42
2022-09-03T13:00:29.937Z,53.51
2022-09-03T13:02:46.330Z,53.28
2022-09-03T13:04:48.058Z,53.85
2022-09-03T13:07:06.358Z,54.09
2022-09-03T13:09:09.276Z,54.91
2022-09-03T13:11:11.059Z,54.56
2022-09-03T13:13:32.266Z,54.12
2022-09-03T13:15:34.089Z,54.13
2022-09-03T13:17:57.488Z,52.67
2022-09-03T13:20:08.439Z,53.04
2022-09-03T13:22:18.828Z,51.52
2022-09-03T13:24:58.484Z,51.48
2022-09-03T13:27:03.312Z,50.82
2022-09-03T13:29:14.785Z,50.79
2022-09-03T13:31:31.749Z,51.12
2022-09-03T13:33:44.992Z,51.04
2022-09-03T13:36:15.144Z,51.63
2022-09-03T13:38:37.996Z,51.44
2022-09-03T13:40:50.153Z,52.28
2022-09-03T13:42:55.681Z,49.57
2022-09-03T13:45:16.913Z,49.19
2022-09-03T13:47:33.822Z,49.46
2022-09-03T13:50:01.627Z,49.69
2022-09-03T13:52:07.791Z,49.24
2022-09-03T13:54:48.190Z,49.02
2022-09-03T13:56:58.385Z,48.89
2022-09-03T13:59:19.890Z,48.49
2022-09-03T14:01:42.915Z,49.56
2022-09-03T14:03:49.138Z,50.55
2022-09-03T14:06:06.876Z,51.06
2022-09-03T14:08:14.413Z,51.73
2022-09-03T14:10:54.410Z,51.96
2022-09-03T14:13:04.930Z,52.31
2022-09-03T14:15:20.913Z,52.50
2022-09-03T14:17:57.873Z,52.45
2022-09-03T14:20:21.361Z,52.38
2022-09-03T14:22:38.496Z,52.87
2022-09-03T14:25:03.666Z,51.80
2022-09-03T14:27:06.034Z,51.03
2022-09-03T14:29:10.571Z,51.22
2022-09-03T14:31:28.278Z,50.88
2022-09-03T14:33:39.624Z,51.68
2022-09-03T14:35:59.856Z,51.85
2022-09-03T14:38:10.302Z,51.82
2022-09-03T14:40:15.948Z,52.25
2022-09-03T14:43:11.545Z,51.93
2022-09-03T14:45:22.906Z,51.37
2022-09-03T14:47:35.725Z,50.70
2022-09-03T14:49:51.190Z,50.61
2022-09-03T14:52:13.389Z,50.15
2022-09-03T14:54:50.404Z,50.48
2022-09-03T14:57:30.191Z,50.45
2022-09-03T14:59:38.407Z,49.78
2022-09-03T15:01:40.235Z,49.72
2022-09-03T15:04:18.716Z,49.97
2022-09-03T15:06:28.134Z,50.04
2022-09-03T15:08:54.471Z,50.49
2022-09-03T15:11:00.128Z,50.56
2022-09-03T15:13:09.931Z,50.09
2022-09-03T15:15:22.003Z,49.62
2022-09-03T15:17:45.407Z,48.67
2022-09-03T15:20:14.970Z,47.53
2022-09-03T15:22:29.757Z,47.63
2022-09-03T15:24:52.013Z,47.85
2022-09-03T15:27:14.165Z,47.19
2022-09-03T15:29:31.379Z,46.82
2022-09-03T15:31:54.410Z,47.04
2022-09-03T15:34:11.421Z,48.12
2022-09-03T15:36:23.697Z,48.29
2022-09-03T15:38:54.603Z,48.31
2022-09-03T15:40:58.149Z,49.07
2022-09-03T15:43:07.326Z,49.83
2022-09-03T15:45:19.582Z,50.04
2022-09-03T15:48:07.786Z,49.88
2022-09-03T15:50:27.174Z,50.31
2022-09-03T15:52:40.935Z,50.46
2022-09-03T15:54:49.065Z,50.60
2022-09-03T15:56:55.932Z,51.32
2022-09-03T15:59:18.174Z,50.49
2022-09-03T16:01:30.215Z,50.67
2022-09-03T16:03:47.672Z,50.45
2022-09-03T16:05:55.484Z,50.72
2022-09-03T16:08:19.150Z,50.10
2022-09-03T16:10:25.464Z,50.42
2022-09-03T16:13:04.734Z,50.27
2022-09-03T16:15:13.129Z,49.39
2022-09-03T16:17:47.115Z,49.29
2022-09-03T16:19:54.499Z,49.33
2022-09-03T16:22:00.687Z,48.38
2022-09-03T16:24:17.679Z,49.91
2022-09-03T16:26:26.527Z,51.00
2022-09-03T16:28:48.414Z,50.75
2022-09-03T16:31:16.256Z,51.55
2022-09-03T16:34:01.811Z,52.06
2022-09-03T16:36:21.624Z,52.47
2022-09-03T16:38:49.834Z,52.56
2022-09-03T16:41:13.307Z,52.33
2022-09-03T16:43:41.715Z,52.81
2022-09-03T16:46:00.929Z,53.53
2022-09-03T16:48:36.129Z,53.61
2022-09-03T16:51:08.923Z,53.63
2022-09-03T16:53:44.281Z,53.48
2022-09-03T16:55:48.885Z,53.44
2022-09-03T16:58:03.224Z,53.83
2022-09-03T17:00:12.816Z,54.38
2022-09-03T17:02:41.966Z,54.54
2022-09-03T17:04:56.843Z,58.77
2022-09-03T17:07:04.982Z,59.70
2022-09-03T17:09:31.011Z,60.14
2022-09-03T17:11:38.402Z,60.54
2022-09-03T17:13:51.989Z,60.88
2022-09-03T17:16:03.342Z,61.06
2022-09-03T17:18:11.112Z,61.37
2022-09-03T17:20:25.138Z,61.45
2022-09-03T17:22:39.838Z,61.53
2022-09-03T17:25:14.121Z,61.41
2022-09-03T17:27:35.881Z,62.09
2022-09-03T17:29:52.306Z,62.65
2022-09-03T17:32:04.696Z,62.42
2022-09-03T17:34:13.828Z,62.33
2022-09-03T17:36:24.385Z,62.87
2022-09-03T17:38:45.763Z,63.09
2022-09-03T17:40:47.955Z,63.33
2022-09-03T17:43:00.753Z,63.36
2022-09-03T17:45:05.615Z,63.96
2022-09-03T17:47:22.634Z,64.27
2022-09-03T17:49:29.376Z,64.14
2022-09-03T17:51:39.870Z,64.03
2022-09-03T17:53:55.976Z,64.09
2022-09-03T17:56:01.733Z,63.91
2022-09-03T17:58:31.660Z,63.86
2022-09-03T18:00:38.500Z,64.08
2022-09-03T18:02:50.734Z,64.05
2022-09-03T18:05:04.665Z,63.87
2022-09-03T18:07:11.531Z,63.73
2022-09-03T18:09:16.123Z,63.81
2022-09-03T18:11:40.784Z,63.67
2022-09-03T18:14:16.618Z,63.46
2022-09-03T18:16:27.695Z,63.73
2022-09-03T18:18:32.845Z,64.50
2022-09-03T18:21:27.563Z,64.45
2022-09-03T18:24:07.657Z,64.76
2022-09-03T18:26:45.010Z,64.57
2022-09-03T18:29:22.908Z,64.73
2022-09-03T18:31:42.947Z,64.80
2022-09-03T18:34:03.188Z,65.11
2022-09-03T18:36:23.962Z,65.67
2022-09-03T18:38:46.427Z,65.49
2022-09-03T18:41:17.467Z,64.99
2022-09-03T18:44:09.256Z,64.77
2022-09-03T18:50:07.512Z,64.21
2022-09-03T18:52:36.522Z,64.40
2022-09-03T18:55:08.045Z,64.73
2022-09-03T18:57:44.773Z,64.79
2022-09-03T19:00:28.095Z,64.87
2022-09-03T19:03:17.103Z,65.40
2022-09-03T19:05:55.477Z,65.41
2022-09-03T19:08:38.526Z,64.96
2022-09-03T19:11:07.859Z,64.57
2022-09-03T19:13:44.614Z,64.43
2022-09-03T19:16:11.774Z,64.89
2022-09-03T19:19:13.737Z,65.72
2022-09-03T19:22:00.857Z,66.20
2022-09-03T19:24:21.868Z,66.24
2022-09-03T19:26:45.785Z,66.57
2022-09-03T19:29:07.001Z,66.67
2022-09-03T19:31:55.385Z,66.82
2022-09-03T19:34:32.374Z,66.61
2022-09-03T19:37:09.439Z,66.80
2022-09-03T19:39:55.681Z,66.98
2022-09-03T19:42:29.725Z,66.57
2022-09-03T19:45:01.156Z,66.11
2022-09-03T19:47:23.092Z,65.73
2022-09-03T19:49:49.328Z,65.38
2022-09-03T19:52:09.320Z,65.08
2022-09-03T19:54:29.666Z,65.04
2022-09-03T19:56:50.305Z,64.78
2022-09-03T19:59:16.336Z,64.86
2022-09-03T20:01:38.279Z,64.70
2022-09-03T20:03:58.748Z,64.67
2022-09-03T20:06:21.470Z,64.74
2022-09-03T20:08:42.398Z,64.71
2022-09-03T20:10:44.938Z,64.75
2022-09-03T20:12:51.722Z,64.95
2022-09-03T20:14:53.497Z,64.66
2022-09-03T20:17:36.700Z,64.89
2022-09-03T20:20:00.128Z,64.77
2022-09-03T20:22:24.524Z,64.74
2022-09-03T20:24:59.137Z,65.05
2022-09-03T20:27:28.222Z,64.96
2022-09-03T20:29:51.545Z,64.87
2022-09-03T20:32:06.942Z,64.79
2022-09-03T20:34:08.651Z,64.92
2022-09-03T20:36:22.774Z,64.80
2022-09-03T20:38:48.638Z,64.96
2022-09-03T20:41:12.075Z,64.93
2022-09-03T20:43:33.403Z,64.83
2022-09-03T20:45:54.056Z,65.07
2022-09-03T20:48:22.177Z,65.05
2022-09-03T20:50:43.855Z,65.04
2022-09-03T20:52:54.620Z,65.16
2022-09-03T20:55:21.920Z,65.16
2022-09-03T20:57:52.587Z,64.98
2022-09-03T21:00:10.987Z,65.11
2022-09-03T21:02:18.745Z,65.32
2022-09-03T21:04:44.381Z,65.39
2022-09-03T21:07:12.347Z,65.37
2022-09-03T21:09:53.146Z,65.42
2022-09-03T21:12:09.452Z,65.53
2022-09-03T21:14:40.439Z,65.57
2022-09-03T21:16:56.200Z,65.65
2022-09-03T21:19:00.652Z,65.77
2022-09-03T21:21:53.562Z,65.80
2022-09-03T21:24:18.570Z,65.98
2022-09-03T21:26:24.867Z,65.90
2022-09-03T21:28:37.362Z,65.98
2022-09-03T21:30:40.862Z,65.95
2022-09-03T21:32:56.039Z,65.89
2022-09-03T21:35:11.437Z,65.93
2022-09-03T21:37:13.826Z,65.90
2022-09-03T21:39:27.703Z,66.03
2022-09-03T21:41:45.615Z,66.01
2022-09-03T21:43:49.840Z,66.10
2022-09-03T21:46:13.027Z,66.17
2022-09-03T21:48:25.829Z,66.27
2022-09-03T21:50:40.195Z,66.23
2022-09-03T21:53:06.720Z,66.33
2022-09-03T21:55:38.337Z,66.29
2022-09-03T21:57:49.509Z,66.46
2022-09-03T22:00:12.764Z,66.41
2022-09-03T22:02:21.767Z,66.41
2022-09-03T22:04:26.116Z,66.45
2022-09-03T22:06:49.583Z,66.60
2022-09-03T22:08:57.496Z,66.84
2022-09-03T22:11:13.203Z,66.94
2022-09-03T22:13:28.303Z,67.21
2022-09-03T22:15:30.334Z,67.19
2022-09-03T22:17:46.947Z,66.92
2022-09-03T22:19:48.617Z,66.67
2022-09-03T22:22:00.797Z,66.92
2022-09-03T22:24:35.898Z,66.81
2022-09-03T22:26:46.485Z,66.87
2022-09-03T22:29:02.549Z,66.92
2022-09-03T22:31:06.833Z,67.11
2022-09-03T22:33:17.686Z,67.23
2022-09-03T22:35:36.577Z,66.93
2022-09-03T22:37:44.066Z,67.01
2022-09-03T22:39:47.326Z,67.03
2022-09-03T22:42:16.304Z,66.63
2022-09-03T22:44:39.589Z,67.13
2022-09-03T22:47:08.429Z,67.15
2022-09-03T22:49:34.109Z,66.92
2022-09-03T22:51:54.074Z,66.98
2022-09-03T22:54:20.541Z,67.16
2022-09-03T22:56:22.445Z,67.02
2022-09-03T22:58:28.936Z,67.11
2022-09-03T23:00:39.943Z,67.27
2022-09-03T23:02:41.972Z,67.27
2022-09-03T23:04:52.687Z,66.90
2022-09-03T23:07:04.196Z,66.80
2022-09-03T23:09:09.480Z,66.86
2022-09-03T23:11:25.517Z,66.90
2022-09-03T23:13:42.125Z,66.89
2022-09-03T23:15:46.473Z,66.90
2022-09-03T23:17:55.053Z,66.95
2022-09-03T23:20:00.740Z,67.07
2022-09-03T23:22:07.919Z,67.16
2022-09-03T23:24:18.850Z,67.07
2022-09-03T23:26:42.247Z,67.25
2022-09-03T23:28:50.853Z,67.08
2022-09-03T23:30:53.094Z,67.13
2022-09-03T23:32:59.891Z,67.23
2022-09-03T23:35:12.224Z,67.18
2022-09-03T23:37:40.589Z,67.20
2022-09-03T23:40:01.301Z,67.15
2022-09-03T23:42:11.850Z,67.12
2022-09-03T23:44:25.796Z,66.99
2022-09-03T23:46:41.585Z,67.19
2022-09-03T23:48:43.263Z,67.42
2022-09-03T23:50:54.111Z,67.45
2022-09-03T23:53:10.691Z,67.15
2022-09-03T23:55:23.209Z,67.30
2022-09-03T23:58:11.166Z,67.43
